MiSS Sarah — WDE9595 — position and weather

sailwx.info

Track history (hours):
 
Tides and Currents Weather Stations Pressure Air Temp Water Temp Dewpoint Dewpoint Depression Visibility Wind Speed Wind Dir Waves Ship Positions

MiSS Sarah

Owner: Higman Barge Lines, Inc, Orange, TX. More information available from US FCC via Universal Licensing System and Coast Guard Vessel Documentation Center.

Last reported at 2017-Jan-18 15:33 UTC. Time now 2017-Jan-18 16:14 UTC.
Position N 30°04' W 093°35'.

Length 24 m; draft 9 m.

Type: Towing. MMSI: 367419040.

Date/timePositionNaut miles runAvg speedWind from/ knotsBaromVisibWave heightAir tempDewpointWater temp
2017-Jan-18 15:33N 30°04' W 093°35'5 4.9
2017-Jan-18 14:33N 30°04' W 093°30'5 4.9
2017-Jan-18 13:33N 30°04' W 093°24'3 3.5
2017-Jan-18 12:33N 30°05' W 093°20'2 1.6
2017-Jan-18 11:33N 30°06' W 093°19'0 0.0
2017-Jan-18 10:33N 30°06' W 093°19'2 1.7
2017-Jan-18 09:33N 30°05' W 093°17'4 4.3
2017-Jan-18 08:33N 30°02' W 093°14'4 4.0
2017-Jan-18 07:33N 29°58' W 093°12'5 4.6
2017-Jan-18 06:32N 29°56' W 093°07'34 4.8
2017-Jan-17 23:28N 29°54' W 092°28'4 4.5
2017-Jan-17 22:33N 29°53' W 092°23'4 4.1
2017-Jan-17 21:33N 29°50' W 092°19'4 3.9
2017-Jan-17 20:33N 29°48' W 092°16'4 4.2
2017-Jan-17 19:33N 29°47' W 092°11'4 3.6
2017-Jan-17 18:33N 29°47' W 092°07'5 4.9
2017-Jan-17 17:33N 29°49' W 092°02'5 5.0
2017-Jan-17 16:32N 29°51' W 091°56'51 3.0
2017-Jan-16 23:19N 29°37' W 090°59'4 5.3
2017-Jan-16 22:32N 29°34' W 090°56'5 5.4
2017-Jan-16 21:33N 29°32' W 090°50'5 4.7
2017-Jan-16 20:33N 29°33' W 090°45'3 3.5
2017-Jan-16 19:33N 29°36' W 090°43'2 2.5
2017-Jan-16 18:33N 29°36' W 090°40'0 0.3
2017-Jan-16 17:33N 29°36' W 090°39'2 1.6
2017-Jan-16 16:33N 29°35' W 090°38'1 0.7
2017-Jan-16 15:33N 29°35' W 090°37'2 2.5
2017-Jan-16 14:33N 29°34' W 090°34'3 2.9
2017-Jan-16 13:33N 29°34' W 090°31'  
2017-Jan-14 05:04N 29°59' W 090°24'0 0.0
2017-Jan-14 04:33N 29°59' W 090°24'  
Track history (hours):
 
Tides and Currents Weather Stations Pressure Air Temp Water Temp Dewpoint Dewpoint Depression Visibility Wind Speed Wind Dir Waves Ship Positions

MiSS Sarah

Owner: Higman Barge Lines, Inc, Orange, TX. More information available from US FCC via Universal Licensing System and Coast Guard Vessel Documentation Center.

Last reported at 2017-Jan-18 15:33 UTC. Time now 2017-Jan-18 16:14 UTC.
Position N 30°04' W 093°35'.

Length 24 m; draft 9 m.

Type: Towing. MMSI: 367419040.

Date/timePositionNaut miles runAvg speedWind from/ knotsBaromVisibWave heightAir tempDewpointWater temp
2017-Jan-18 15:33N 30°04' W 093°35'5 4.9
2017-Jan-18 14:33N 30°04' W 093°30'5 4.9
2017-Jan-18 13:33N 30°04' W 093°24'3 3.5
2017-Jan-18 12:33N 30°05' W 093°20'2 1.6
2017-Jan-18 11:33N 30°06' W 093°19'0 0.0
2017-Jan-18 10:33N 30°06' W 093°19'2 1.7
2017-Jan-18 09:33N 30°05' W 093°17'4 4.3
2017-Jan-18 08:33N 30°02' W 093°14'4 4.0
2017-Jan-18 07:33N 29°58' W 093°12'5 4.6
2017-Jan-18 06:32N 29°56' W 093°07'34 4.8
2017-Jan-17 23:28N 29°54' W 092°28'4 4.5
2017-Jan-17 22:33N 29°53' W 092°23'4 4.1
2017-Jan-17 21:33N 29°50' W 092°19'4 3.9
2017-Jan-17 20:33N 29°48' W 092°16'4 4.2
2017-Jan-17 19:33N 29°47' W 092°11'4 3.6
2017-Jan-17 18:33N 29°47' W 092°07'5 4.9
2017-Jan-17 17:33N 29°49' W 092°02'5 5.0
2017-Jan-17 16:32N 29°51' W 091°56'51 3.0
2017-Jan-16 23:19N 29°37' W 090°59'4 5.3
2017-Jan-16 22:32N 29°34' W 090°56'5 5.4
2017-Jan-16 21:33N 29°32' W 090°50'5 4.7
2017-Jan-16 20:33N 29°33' W 090°45'3 3.5
2017-Jan-16 19:33N 29°36' W 090°43'2 2.5
2017-Jan-16 18:33N 29°36' W 090°40'0 0.3
2017-Jan-16 17:33N 29°36' W 090°39'2 1.6
2017-Jan-16 16:33N 29°35' W 090°38'1 0.7
2017-Jan-16 15:33N 29°35' W 090°37'2 2.5
2017-Jan-16 14:33N 29°34' W 090°34'3 2.9
2017-Jan-16 13:33N 29°34' W 090°31'  
2017-Jan-14 05:04N 29°59' W 090°24'0 0.0
2017-Jan-14 04:33N 29°59' W 090°24'  

Dump ship's entire track history